createdAt,value
2022-11-23T00:00:22.461Z,99238.22
2022-11-23T00:02:56.573Z,99254.69
2022-11-23T00:05:29.826Z,99246.78
2022-11-23T00:08:02.208Z,99238.88
2022-11-23T00:10:34.104Z,99248.41
2022-11-23T00:13:08.430Z,99242.25
2022-11-23T00:15:41.060Z,99238.75
2022-11-23T00:18:12.329Z,99250.09
2022-11-23T00:20:44.470Z,99250.94
2022-11-23T00:23:15.759Z,99241.31
2022-11-23T00:25:47.076Z,99251.72
2022-11-23T00:28:18.466Z,99244.72
2022-11-23T00:30:50.528Z,99246.41
2022-11-23T00:33:21.959Z,99248.16
2022-11-23T00:36:04.992Z,99238.59
2022-11-23T00:38:37.224Z,99246.44
2022-11-23T00:41:11.601Z,99239.44
2022-11-23T00:43:43.389Z,99235.88
2022-11-23T00:46:17.611Z,99238.44
2022-11-23T00:48:51.195Z,99231.47
2022-11-23T00:51:25.097Z,99242.78
2022-11-23T00:53:57.194Z,99239.25
2022-11-23T00:56:29.933Z,99246.28
2022-11-23T00:59:02.524Z,99232.28
2022-11-23T01:01:36.955Z,99240.94
2022-11-23T01:04:08.959Z,99242.66
2022-11-23T01:06:40.631Z,99241.78
2022-11-23T01:09:14.655Z,99243.53
2022-11-23T01:11:46.004Z,99243.56
2022-11-23T01:14:17.356Z,99244.47
2022-11-23T01:16:48.767Z,99243.63
2022-11-23T01:19:21.368Z,99244.44
2022-11-23T01:21:52.960Z,99243.56
2022-11-23T01:24:24.231Z,99253.97
2022-11-23T01:26:55.948Z,99243.47
2022-11-23T01:29:27.229Z,99239.13
2022-11-23T01:31:58.508Z,99248.75
2022-11-23T01:34:29.778Z,99245.31
2022-11-23T01:37:01.090Z,99256.75
2022-11-23T01:39:32.640Z,99249.78
2022-11-23T01:42:08.032Z,99243.72
2022-11-23T01:44:41.654Z,99242.00
2022-11-23T01:47:12.955Z,99249.81
2022-11-23T01:49:48.300Z,99249.88
2022-11-23T01:52:24.942Z,99245.50
2022-11-23T01:55:01.548Z,99248.09
2022-11-23T01:57:41.942Z,99249.78
2022-11-23T02:00:13.638Z,99254.09
2022-11-23T02:02:56.765Z,99247.13
2022-11-23T02:05:33.588Z,99244.41
2022-11-23T02:08:06.247Z,99248.72
2022-11-23T02:10:37.931Z,99250.47
2022-11-23T02:13:12.506Z,99243.41
2022-11-23T02:15:43.877Z,99247.69
2022-11-23T02:18:19.305Z,99232.81
2022-11-23T02:20:51.791Z,99236.28
2022-11-23T02:23:42.001Z,99234.63
2022-11-23T02:26:17.973Z,99235.44
2022-11-23T02:28:58.949Z,99234.66
2022-11-23T02:31:30.259Z,99235.50
2022-11-23T02:34:01.993Z,99235.50
2022-11-23T02:36:46.433Z,99233.75
2022-11-23T02:39:37.563Z,99234.63
2022-11-23T02:42:08.827Z,99238.97
2022-11-23T02:44:59.308Z,99226.66
2022-11-23T02:47:30.839Z,99226.69
2022-11-23T02:50:02.134Z,99227.53
2022-11-23T02:52:33.372Z,99231.84
2022-11-23T02:55:04.900Z,99230.13
2022-11-23T02:57:36.475Z,99233.59
2022-11-23T03:00:08.500Z,99230.97
2022-11-23T03:02:39.804Z,99223.94
2022-11-23T03:05:11.180Z,99238.81
2022-11-23T03:07:43.000Z,99230.84
2022-11-23T03:10:14.443Z,99231.69
2022-11-23T03:12:45.695Z,99238.72
2022-11-23T03:15:17.110Z,99234.31
2022-11-23T03:17:48.429Z,99241.31
2022-11-23T03:20:20.523Z,99240.41
2022-11-23T03:22:51.896Z,99236.94
2022-11-23T03:25:23.191Z,99249.16
2022-11-23T03:27:54.470Z,99239.56
2022-11-23T03:30:25.760Z,99242.19
2022-11-23T03:32:57.717Z,99248.31
2022-11-23T03:35:29.015Z,99245.63
2022-11-23T03:38:00.308Z,99250.88
2022-11-23T03:40:31.625Z,99257.00
2022-11-23T03:43:03.641Z,99250.88
2022-11-23T03:45:34.897Z,99252.66
2022-11-23T03:48:06.392Z,99256.94
2022-11-23T03:50:37.757Z,99245.63
2022-11-23T03:53:09.145Z,99239.56
2022-11-23T03:55:40.577Z,99254.47
2022-11-23T03:58:11.851Z,99256.19
2022-11-23T04:00:43.252Z,99258.78
2022-11-23T04:03:14.593Z,99252.53
2022-11-23T04:05:46.032Z,99250.72
2022-11-23T04:08:17.381Z,99247.13
2022-11-23T04:10:48.678Z,99247.91
2022-11-23T04:13:19.928Z,99252.25
2022-11-23T04:15:51.304Z,99251.31
2022-11-23T04:18:22.637Z,99252.16
2022-11-23T04:20:53.936Z,99234.63
2022-11-23T04:23:25.195Z,99245.97
2022-11-23T04:25:56.522Z,99244.13
2022-11-23T04:28:27.780Z,99242.44
2022-11-23T04:30:59.088Z,99240.59
2022-11-23T04:33:31.612Z,99244.97
2022-11-23T04:36:03.088Z,99237.91
2022-11-23T04:38:34.641Z,99245.72
2022-11-23T04:41:05.971Z,99237.78
2022-11-23T04:43:37.219Z,99249.19
2022-11-23T04:46:10.483Z,99241.31
2022-11-23T04:48:41.721Z,99246.50
2022-11-23T04:51:13.591Z,99243.00
2022-11-23T04:53:44.930Z,99249.16
2022-11-23T04:56:16.235Z,99246.44
2022-11-23T04:58:47.778Z,99244.69
2022-11-23T05:01:19.118Z,99251.66
2022-11-23T05:03:50.419Z,99243.69
2022-11-23T05:06:21.707Z,99240.22
2022-11-23T05:08:52.967Z,99242.81
2022-11-23T05:11:24.341Z,99252.41
2022-11-23T05:13:55.734Z,99248.81
2022-11-23T05:16:27.013Z,99240.94
2022-11-23T05:18:58.268Z,99247.94
2022-11-23T05:21:29.537Z,99244.50
2022-11-23T05:24:00.890Z,99253.19
2022-11-23T05:26:32.148Z,99246.13
2022-11-23T05:29:03.432Z,99247.94
2022-11-23T05:31:34.706Z,99254.84
2022-11-23T05:34:05.974Z,99259.16
2022-11-23T05:36:41.897Z,99251.25
2022-11-23T05:39:13.500Z,99254.66
2022-11-23T05:41:44.791Z,99259.06
2022-11-23T05:44:16.056Z,99254.66
2022-11-23T05:46:47.327Z,99253.75
2022-11-23T05:49:18.618Z,99254.66
2022-11-23T05:51:49.877Z,99261.63
2022-11-23T05:54:21.306Z,99250.22
2022-11-23T05:56:52.589Z,99251.09
2022-11-23T05:59:23.912Z,99258.09
2022-11-23T06:01:55.187Z,99256.41
2022-11-23T06:04:26.520Z,99251.16
2022-11-23T06:07:00.834Z,99248.41
2022-11-23T06:09:32.515Z,99249.28
2022-11-23T06:12:04.173Z,99256.22
2022-11-23T06:14:35.513Z,99257.06
2022-11-23T06:17:06.802Z,99251.78
2022-11-23T06:19:38.115Z,99259.69
2022-11-23T06:22:09.433Z,99263.19
2022-11-23T06:24:41.287Z,99252.66
2022-11-23T06:27:18.146Z,99259.63
2022-11-23T06:29:49.849Z,99262.19
2022-11-23T06:32:21.123Z,99255.19
2022-11-23T06:34:53.875Z,99259.63
2022-11-23T06:37:26.912Z,99265.69
2022-11-23T06:39:58.197Z,99272.75
2022-11-23T06:42:38.768Z,99279.69
2022-11-23T06:45:10.811Z,99278.00
2022-11-23T06:47:42.102Z,99280.59
2022-11-23T06:50:14.560Z,99282.41
2022-11-23T06:52:45.823Z,99285.13
2022-11-23T06:55:17.159Z,99287.81
2022-11-23T06:57:48.475Z,99292.34
2022-11-23T07:00:20.051Z,99288.00
2022-11-23T07:02:52.925Z,99295.06
2022-11-23T07:05:24.669Z,99284.66
2022-11-23T07:07:56.842Z,99297.84
2022-11-23T07:10:28.254Z,99302.25
2022-11-23T07:13:06.654Z,99304.88
2022-11-23T07:15:39.255Z,99304.84
2022-11-23T07:18:11.917Z,99309.16
2022-11-23T07:20:43.289Z,99305.59
2022-11-23T07:23:14.815Z,99309.97
2022-11-23T07:25:46.329Z,99309.09
2022-11-23T07:28:18.265Z,99304.69
2022-11-23T07:30:51.472Z,99296.78
2022-11-23T07:33:22.749Z,99308.94
2022-11-23T07:35:54.021Z,99310.63
2022-11-23T07:38:25.280Z,99317.53
2022-11-23T07:40:58.836Z,99313.09
2022-11-23T07:43:30.601Z,99304.25
2022-11-23T07:46:01.859Z,99307.59
2022-11-23T07:48:36.384Z,99317.16
2022-11-23T07:51:08.168Z,99318.66
2022-11-23T07:53:39.423Z,99311.69
2022-11-23T07:56:11.037Z,99320.31
2022-11-23T07:58:42.324Z,99329.75
2022-11-23T08:01:18.351Z,99326.16
2022-11-23T08:03:49.798Z,99315.69
2022-11-23T08:06:21.135Z,99335.69
2022-11-23T08:08:52.410Z,99330.28
2022-11-23T08:11:23.675Z,99331.00
2022-11-23T08:13:54.956Z,99331.75
2022-11-23T08:16:26.319Z,99334.13
2022-11-23T08:18:57.597Z,99338.34
2022-11-23T08:21:28.947Z,99340.84
2022-11-23T08:24:00.207Z,99338.03
2022-11-23T08:26:31.510Z,99330.25
2022-11-23T08:29:03.270Z,99321.56
2022-11-23T08:31:34.683Z,99345.28
2022-11-23T08:34:05.993Z,99353.25
2022-11-23T08:36:37.433Z,99342.72
2022-11-23T08:39:11.021Z,99342.56
2022-11-23T08:41:42.311Z,99347.69
2022-11-23T08:44:13.689Z,99339.69
2022-11-23T08:46:44.958Z,99347.41
2022-11-23T08:49:16.220Z,99339.50
2022-11-23T08:51:50.219Z,99344.66
2022-11-23T08:54:24.104Z,99342.75
2022-11-23T08:56:55.465Z,99350.50
2022-11-23T08:59:26.721Z,99351.16
2022-11-23T09:01:57.991Z,99347.59
2022-11-23T09:04:30.849Z,99347.50
2022-11-23T09:07:03.146Z,99353.72
2022-11-23T09:09:34.473Z,99353.84
2022-11-23T09:12:06.151Z,99347.97
2022-11-23T09:14:37.502Z,99355.06
2022-11-23T09:17:08.819Z,99359.50
2022-11-23T09:19:40.465Z,99362.13
2022-11-23T09:22:11.733Z,99369.19
2022-11-23T09:24:43.102Z,99364.81
2022-11-23T09:27:14.441Z,99362.78
2022-11-23T09:29:45.776Z,99365.88
2022-11-23T09:32:17.717Z,99364.69
2022-11-23T09:34:48.987Z,99372.19
2022-11-23T09:37:20.445Z,99379.84
2022-11-23T09:39:51.738Z,99382.06
2022-11-23T09:42:34.903Z,99381.72
2022-11-23T09:45:26.090Z,99378.13
2022-11-23T09:48:03.091Z,99380.81
2022-11-23T09:50:46.654Z,99381.63
2022-11-23T09:53:25.479Z,99379.53
2022-11-23T09:55:57.776Z,99371.53
2022-11-23T09:58:36.290Z,99372.97
2022-11-23T10:01:12.779Z,99375.22
2022-11-23T10:03:48.882Z,99376.66
2022-11-23T10:06:34.417Z,99377.91
2022-11-23T10:09:42.973Z,99384.53
2022-11-23T10:12:58.704Z,99377.28
2022-11-23T10:15:38.884Z,99383.47
2022-11-23T10:18:38.746Z,99384.44
2022-11-23T10:21:24.032Z,99384.34
2022-11-23T10:24:00.712Z,99383.47
2022-11-23T10:26:36.513Z,99392.13
2022-11-23T10:29:17.310Z,99390.22
2022-11-23T10:31:55.498Z,99394.38
2022-11-23T10:34:51.020Z,99388.94
2022-11-23T10:37:22.472Z,99389.03
2022-11-23T10:39:53.824Z,99397.03
2022-11-23T10:42:33.795Z,99400.59
2022-11-23T10:45:05.808Z,99390.81
2022-11-23T10:47:40.828Z,99390.72
2022-11-23T10:50:20.921Z,99392.44
2022-11-23T10:53:19.925Z,99393.97
2022-11-23T10:55:54.950Z,99397.34
2022-11-23T10:58:35.031Z,99396.22
2022-11-23T11:01:20.162Z,99398.88
2022-11-23T11:03:53.468Z,99396.19
2022-11-23T11:06:27.649Z,99404.84
2022-11-23T11:09:03.744Z,99400.25
2022-11-23T11:11:39.633Z,99393.94
2022-11-23T11:14:19.570Z,99390.22
2022-11-23T11:16:57.924Z,99393.72
2022-11-23T11:19:34.601Z,99388.47
2022-11-23T11:22:35.677Z,99387.50
2022-11-23T11:25:07.816Z,99383.72
2022-11-23T11:27:51.433Z,99381.88
2022-11-23T11:30:24.786Z,99381.56
2022-11-23T11:33:09.077Z,99388.53
2022-11-23T11:35:45.993Z,99376.38
2022-11-23T11:38:37.655Z,99372.75
2022-11-23T11:41:11.908Z,99390.22
2022-11-23T11:43:50.287Z,99388.59
2022-11-23T11:46:31.969Z,99396.53
2022-11-23T11:49:07.507Z,99394.69
2022-11-23T11:51:47.369Z,99385.00
2022-11-23T11:54:28.071Z,99376.97
2022-11-23T11:57:16.891Z,99387.44
2022-11-23T11:59:53.066Z,99384.75
2022-11-23T12:02:31.300Z,99377.66
2022-11-23T12:05:24.626Z,99370.41
2022-11-23T12:08:15.856Z,99364.31
2022-11-23T12:10:54.115Z,99369.50
2022-11-23T12:13:38.009Z,99362.22
2022-11-23T12:16:21.244Z,99367.31
2022-11-23T12:19:17.689Z,99366.22
2022-11-23T12:22:02.965Z,99360.84
2022-11-23T12:25:11.412Z,99364.53
2022-11-23T12:27:56.433Z,99365.63
2022-11-23T12:30:38.016Z,99362.34
2022-11-23T12:33:27.328Z,99354.72
2022-11-23T12:36:29.691Z,99360.09
2022-11-23T12:39:39.808Z,99363.31
2022-11-23T12:42:27.538Z,99359.59
2022-11-23T12:45:20.020Z,99361.16
2022-11-23T12:48:03.324Z,99362.81
2022-11-23T12:50:50.830Z,99364.31
2022-11-23T12:53:51.100Z,99365.78
2022-11-23T12:56:45.318Z,99364.00
2022-11-23T12:59:18.640Z,99363.09
2022-11-23T13:02:00.290Z,99366.44
2022-11-23T13:04:47.950Z,99358.59
2022-11-23T13:07:49.292Z,99367.13
2022-11-23T13:10:27.216Z,99366.06
2022-11-23T13:13:35.361Z,99365.81
2022-11-23T13:16:33.287Z,99370.19
2022-11-23T13:19:23.304Z,99372.66
2022-11-23T13:21:55.080Z,99366.50
2022-11-23T13:24:35.776Z,99356.75
2022-11-23T13:27:13.225Z,99369.25
2022-11-23T13:29:50.697Z,99367.66
2022-11-23T13:32:40.056Z,99369.38
2022-11-23T13:35:17.361Z,99362.34
2022-11-23T13:37:57.816Z,99350.28
2022-11-23T13:40:34.298Z,99347.81
2022-11-23T13:43:15.936Z,99350.41
2022-11-23T13:46:32.103Z,99344.22
2022-11-23T13:49:03.466Z,99341.88
2022-11-23T13:51:35.425Z,99355.94
2022-11-23T13:54:21.839Z,99350.63
2022-11-23T13:57:01.580Z,99353.34
2022-11-23T13:59:34.665Z,99355.94
2022-11-23T14:02:09.294Z,99345.09
2022-11-23T14:04:46.857Z,99344.88
2022-11-23T14:07:43.084Z,99344.72
2022-11-23T14:10:22.624Z,99354.97
2022-11-23T14:13:19.128Z,99351.38
2022-11-23T14:16:01.838Z,99353.19
2022-11-23T14:18:52.375Z,99351.69
2022-11-23T14:21:44.089Z,99345.22
2022-11-23T14:24:39.934Z,99354.38
2022-11-23T14:27:47.158Z,99334.69
2022-11-23T14:30:24.439Z,99351.16
2022-11-23T14:33:26.665Z,99345.72
2022-11-23T14:36:19.860Z,99347.19
2022-11-23T14:39:23.576Z,99343.53
2022-11-23T14:41:59.852Z,99335.25
2022-11-23T14:44:38.180Z,99334.88
2022-11-23T14:47:11.349Z,99335.28
2022-11-23T14:49:50.877Z,99331.47
2022-11-23T14:52:26.168Z,99338.78
2022-11-23T14:55:00.028Z,99341.66
2022-11-23T14:57:41.188Z,99338.53
2022-11-23T15:00:29.362Z,99346.75
2022-11-23T15:03:34.375Z,99344.41
2022-11-23T15:06:10.481Z,99348.19
2022-11-23T15:08:49.970Z,99341.41
2022-11-23T15:11:26.224Z,99334.84
2022-11-23T15:14:03.664Z,99343.66
2022-11-23T15:16:38.987Z,99348.25
2022-11-23T15:19:27.497Z,99343.31
2022-11-23T15:21:59.817Z,99346.09
2022-11-23T15:24:31.768Z,99336.69
2022-11-23T15:27:10.795Z,99327.19
2022-11-23T15:29:51.799Z,99321.22
2022-11-23T15:32:31.308Z,99344.97
2022-11-23T15:35:07.818Z,99336.44
2022-11-23T15:37:47.665Z,99352.25
2022-11-23T15:40:19.392Z,99345.41
2022-11-23T15:42:51.343Z,99356.97
2022-11-23T15:45:41.418Z,99381.66
2022-11-23T15:48:33.468Z,99381.97
2022-11-23T15:51:08.321Z,99382.13
2022-11-23T15:53:50.205Z,99383.13
2022-11-23T15:56:35.916Z,99378.13
2022-11-23T15:59:22.483Z,99392.28
2022-11-23T16:01:55.095Z,99389.91
2022-11-23T16:04:42.194Z,99392.63
2022-11-23T16:07:22.601Z,99398.06
2022-11-23T16:10:16.343Z,99389.50
2022-11-23T16:12:53.565Z,99399.28
2022-11-23T16:15:37.444Z,99395.88
2022-11-23T16:18:17.718Z,99398.56
2022-11-23T16:20:55.237Z,99392.47
2022-11-23T16:23:41.293Z,99409.22
2022-11-23T16:26:13.892Z,99411.09
2022-11-23T16:28:56.702Z,99398.94
2022-11-23T16:31:41.520Z,99395.47
2022-11-23T16:34:17.139Z,99401.69
2022-11-23T16:36:48.988Z,99392.94
2022-11-23T16:39:20.347Z,99397.38
2022-11-23T16:41:52.325Z,99406.16
2022-11-23T16:44:23.615Z,99394.69
2022-11-23T16:46:54.939Z,99387.69
2022-11-23T16:49:26.227Z,99394.66
2022-11-23T16:51:57.689Z,99382.38
2022-11-23T16:54:28.953Z,99392.06
2022-11-23T16:57:00.342Z,99381.47
2022-11-23T16:59:32.140Z,99376.22
2022-11-23T17:02:03.587Z,99375.34
2022-11-23T17:04:35.078Z,99363.22
2022-11-23T17:07:06.597Z,99385.94
2022-11-23T17:09:38.173Z,99379.06
2022-11-23T17:12:14.959Z,99395.66
2022-11-23T17:14:50.095Z,99404.47
2022-11-23T17:17:22.393Z,99402.75
2022-11-23T17:19:53.645Z,99404.59
2022-11-23T17:22:24.984Z,99394.22
2022-11-23T17:24:56.287Z,99404.72
2022-11-23T17:27:30.404Z,99391.63
2022-11-23T17:30:06.469Z,99412.63
2022-11-23T17:32:37.872Z,99411.81
2022-11-23T17:35:09.161Z,99417.19
2022-11-23T17:37:40.749Z,99405.88
2022-11-23T17:40:16.708Z,99411.94
2022-11-23T17:42:48.219Z,99426.00
2022-11-23T17:45:19.994Z,99439.22
2022-11-23T17:47:51.291Z,99441.94
2022-11-23T17:50:23.568Z,99449.81
2022-11-23T17:52:54.820Z,99445.44
2022-11-23T17:55:26.139Z,99453.38
2022-11-23T17:57:57.426Z,99449.09
2022-11-23T18:00:29.640Z,99456.16
2022-11-23T18:03:04.056Z,99462.31
2022-11-23T18:05:35.362Z,99457.97
2022-11-23T18:08:06.622Z,99470.34
2022-11-23T18:10:37.905Z,99470.47
2022-11-23T18:13:09.228Z,99460.94
2022-11-23T18:15:40.510Z,99479.34
2022-11-23T18:18:12.151Z,99481.16
2022-11-23T18:20:43.483Z,99478.63
2022-11-23T18:23:14.765Z,99483.94
2022-11-23T18:25:46.189Z,99478.84
2022-11-23T18:28:18.683Z,99491.13
2022-11-23T18:30:50.144Z,99484.19
2022-11-23T18:33:22.178Z,99486.00
2022-11-23T18:35:53.473Z,99478.25
2022-11-23T18:38:24.783Z,99483.53
2022-11-23T18:40:56.067Z,99487.03
2022-11-23T18:43:27.703Z,99488.91
2022-11-23T18:45:59.126Z,99485.44
2022-11-23T18:48:30.466Z,99481.13
2022-11-23T18:51:03.011Z,99501.25
2022-11-23T18:53:34.323Z,99494.31
2022-11-23T18:56:07.013Z,99505.69
2022-11-23T18:58:41.865Z,99501.34
2022-11-23T19:01:21.518Z,99499.63
2022-11-23T19:03:53.365Z,99504.94
2022-11-23T19:06:24.678Z,99512.88
2022-11-23T19:08:58.952Z,99509.44
2022-11-23T19:11:30.279Z,99506.81
2022-11-23T19:14:02.209Z,99498.19
2022-11-23T19:16:33.573Z,99504.38
2022-11-23T19:19:06.952Z,99503.53
2022-11-23T19:21:39.040Z,99512.31
2022-11-23T19:24:10.388Z,99509.69
2022-11-23T19:26:41.753Z,99511.47
2022-11-23T19:29:13.672Z,99515.88
2022-11-23T19:31:45.105Z,99514.22
2022-11-23T19:34:16.382Z,99515.13
2022-11-23T19:36:47.710Z,99518.59
2022-11-23T19:39:19.004Z,99519.53
2022-11-23T19:41:50.455Z,99522.16
2022-11-23T19:44:21.801Z,99508.28
2022-11-23T19:46:53.184Z,99513.56
2022-11-23T19:49:25.572Z,99514.44
2022-11-23T19:51:56.926Z,99526.69
2022-11-23T19:54:28.258Z,99521.50
2022-11-23T19:56:59.557Z,99527.56
2022-11-23T19:59:31.371Z,99518.81
2022-11-23T20:02:03.117Z,99521.34
2022-11-23T20:04:34.637Z,99514.28
2022-11-23T20:07:05.997Z,99521.19
2022-11-23T20:09:38.036Z,99515.00
2022-11-23T20:12:09.273Z,99527.22
2022-11-23T20:14:40.548Z,99520.19
2022-11-23T20:17:12.232Z,99522.78
2022-11-23T20:19:43.495Z,99528.88
2022-11-23T20:22:14.791Z,99534.94
2022-11-23T20:24:46.081Z,99536.59
2022-11-23T20:27:17.459Z,99540.84
2022-11-23T20:29:48.718Z,99537.19
2022-11-23T20:32:19.991Z,99523.13
2022-11-23T20:34:51.277Z,99543.06
2022-11-23T20:37:23.302Z,99540.31
2022-11-23T20:39:54.710Z,99548.97
2022-11-23T20:42:25.961Z,99553.19
2022-11-23T20:44:57.262Z,99550.44
2022-11-23T20:47:28.566Z,99553.00
2022-11-23T20:50:00.101Z,99558.16
2022-11-23T20:52:31.514Z,99553.75
2022-11-23T20:55:02.784Z,99551.91
2022-11-23T20:57:34.039Z,99561.41
2022-11-23T21:00:06.143Z,99553.50
2022-11-23T21:02:37.566Z,99555.13
2022-11-23T21:05:09.135Z,99551.56
2022-11-23T21:07:40.578Z,99555.84
2022-11-23T21:10:32.409Z,99568.91
2022-11-23T21:13:21.983Z,99565.38
2022-11-23T21:15:53.304Z,99563.56
2022-11-23T21:18:24.604Z,99571.38
2022-11-23T21:20:56.312Z,99564.34
2022-11-23T21:23:33.908Z,99577.34
2022-11-23T21:26:06.079Z,99585.16
2022-11-23T21:28:37.351Z,99588.69
2022-11-23T21:31:09.792Z,99587.66
2022-11-23T21:33:42.785Z,99584.09
2022-11-23T21:36:14.329Z,99591.00
2022-11-23T21:38:45.626Z,99593.59
2022-11-23T21:41:18.035Z,99592.69
2022-11-23T21:43:53.553Z,99592.66
2022-11-23T21:46:25.247Z,99598.75
2022-11-23T21:48:58.349Z,99605.72
2022-11-23T21:51:30.817Z,99604.81
2022-11-23T21:54:05.177Z,99608.28
2022-11-23T21:56:36.676Z,99607.47
2022-11-23T21:59:08.274Z,99605.63
2022-11-23T22:01:40.631Z,99610.81
2022-11-23T22:04:15.082Z,99595.94
2022-11-23T22:06:46.516Z,99596.75
2022-11-23T22:09:18.089Z,99609.84
2022-11-23T22:11:49.332Z,99611.56
2022-11-23T22:14:21.914Z,99608.94
2022-11-23T22:16:54.272Z,99616.78
2022-11-23T22:19:25.565Z,99630.75
2022-11-23T22:21:56.815Z,99625.47
2022-11-23T22:24:28.112Z,99625.41
2022-11-23T22:26:59.523Z,99628.06
2022-11-23T22:29:30.833Z,99638.53
2022-11-23T22:32:02.174Z,99634.13
2022-11-23T22:34:35.164Z,99642.91
2022-11-23T22:37:10.571Z,99641.25
2022-11-23T22:39:42.272Z,99649.97
2022-11-23T22:42:14.953Z,99649.13
2022-11-23T22:44:46.556Z,99642.97
2022-11-23T22:47:18.005Z,99643.78
2022-11-23T22:49:49.293Z,99653.41
2022-11-23T22:52:20.641Z,99641.19
2022-11-23T22:54:51.885Z,99658.63
2022-11-23T22:57:23.136Z,99651.59
2022-11-23T22:59:54.362Z,99648.19
2022-11-23T23:02:25.808Z,99656.97
2022-11-23T23:04:57.224Z,99656.09
2022-11-23T23:07:31.191Z,99654.38
2022-11-23T23:10:02.600Z,99649.22
2022-11-23T23:12:33.864Z,99657.16
2022-11-23T23:15:05.467Z,99659.84
2022-11-23T23:17:36.815Z,99651.13
2022-11-23T23:20:08.770Z,99654.66
2022-11-23T23:22:40.041Z,99660.81
2022-11-23T23:25:11.300Z,99658.28
2022-11-23T23:27:42.556Z,99659.19
2022-11-23T23:30:14.074Z,99667.06
2022-11-23T23:32:45.695Z,99669.72
2022-11-23T23:35:16.944Z,99663.59
2022-11-23T23:37:51.517Z,99666.31
2022-11-23T23:40:23.027Z,99668.03
2022-11-23T23:42:54.693Z,99674.25
2022-11-23T23:45:25.983Z,99662.94
2022-11-23T23:47:58.805Z,99665.50
2022-11-23T23:50:30.052Z,99672.50
2022-11-23T23:53:01.361Z,99669.91
2022-11-23T23:55:32.612Z,99669.03
2022-11-23T23:58:03.961Z,99666.47
